createdAt,value
2022-11-05T00:05:01.473Z,44.97
2022-11-05T00:10:29.736Z,45.32
2022-11-05T00:16:10.273Z,45.20
2022-11-05T00:21:54.069Z,44.90
2022-11-05T00:27:15.795Z,44.93
2022-11-05T00:32:37.567Z,45.00
2022-11-05T00:37:59.297Z,45.38
2022-11-05T00:43:39.306Z,45.21
2022-11-05T00:49:19.317Z,45.10
2022-11-05T00:54:41.060Z,45.42
2022-11-05T01:00:02.753Z,45.20
2022-11-05T01:05:24.620Z,45.40
2022-11-05T01:10:48.633Z,45.26
2022-11-05T01:16:10.783Z,45.34
2022-11-05T01:21:32.787Z,45.81
2022-11-05T01:26:54.471Z,45.60
2022-11-05T01:32:16.114Z,45.54
2022-11-05T01:37:38.202Z,45.53
2022-11-05T01:42:59.868Z,45.71
2022-11-05T01:48:37.942Z,45.76
2022-11-05T01:54:07.657Z,45.86
2022-11-05T01:59:44.537Z,45.54
2022-11-05T02:05:07.327Z,45.49
2022-11-05T02:10:29.325Z,45.82
2022-11-05T02:16:02.021Z,45.83
2022-11-05T02:21:46.854Z,45.55
2022-11-05T02:27:21.227Z,46.07
2022-11-05T02:33:06.434Z,45.60
2022-11-05T02:38:34.511Z,45.96
2022-11-05T02:44:24.568Z,46.06
2022-11-05T02:49:52.189Z,45.90
2022-11-05T02:55:19.124Z,45.69
2022-11-05T03:00:40.703Z,45.86
2022-11-05T03:06:18.114Z,45.80
2022-11-05T03:11:48.229Z,45.86
2022-11-05T03:17:16.852Z,45.89
2022-11-05T03:22:43.021Z,46.07
2022-11-05T03:28:08.128Z,46.00
2022-11-05T03:33:33.550Z,45.93
2022-11-05T03:38:58.304Z,45.88
2022-11-05T03:44:26.503Z,46.01
2022-11-05T03:50:14.111Z,45.93
2022-11-05T03:56:00.442Z,45.98
2022-11-05T04:01:22.220Z,45.89
2022-11-05T04:07:02.744Z,46.21
2022-11-05T04:12:42.767Z,46.12
2022-11-05T04:18:04.425Z,46.05
2022-11-05T04:23:44.440Z,46.05
2022-11-05T04:29:25.492Z,45.93
2022-11-05T04:34:47.130Z,46.05
2022-11-05T04:40:09.313Z,46.15
2022-11-05T04:45:34.505Z,46.07
2022-11-05T04:50:56.138Z,46.06
2022-11-05T04:56:25.058Z,45.75
2022-11-05T05:01:53.391Z,45.86
2022-11-05T05:07:15.221Z,45.97
2022-11-05T05:12:37.110Z,45.90
2022-11-05T05:17:59.806Z,45.59
2022-11-05T05:23:21.438Z,45.95
2022-11-05T05:28:43.106Z,45.87
2022-11-05T05:34:05.690Z,46.13
2022-11-05T05:39:27.688Z,46.19
2022-11-05T05:44:49.356Z,45.93
2022-11-05T05:50:11.040Z,46.11
2022-11-05T05:55:32.727Z,45.87
2022-11-05T06:00:55.037Z,45.79
2022-11-05T06:06:21.338Z,45.91
2022-11-05T06:11:43.001Z,45.72
2022-11-05T06:17:04.747Z,45.65
2022-11-05T06:22:26.466Z,45.68
2022-11-05T06:27:48.160Z,45.90
2022-11-05T06:33:10.142Z,45.67
2022-11-05T06:38:34.110Z,45.52
2022-11-05T06:43:55.790Z,45.69
2022-11-05T06:54:39.653Z,45.34
2022-11-05T07:00:07.282Z,45.11
2022-11-05T07:05:29.666Z,45.20
2022-11-05T07:10:51.441Z,45.02
2022-11-05T07:16:13.186Z,45.18
2022-11-05T07:21:34.916Z,45.34
2022-11-05T07:26:56.553Z,45.19
2022-11-05T07:32:18.346Z,45.22
2022-11-05T07:37:47.291Z,45.49
2022-11-05T07:43:09.443Z,45.30
2022-11-05T07:48:31.282Z,45.49
2022-11-05T07:53:52.944Z,45.39
2022-11-05T07:59:14.614Z,45.65
2022-11-05T08:04:36.294Z,45.46
2022-11-05T08:09:57.938Z,45.16
2022-11-05T08:15:19.940Z,44.69
2022-11-05T08:20:43.990Z,44.13
2022-11-05T08:26:06.029Z,43.92
2022-11-05T08:31:27.914Z,43.17
2022-11-05T08:36:49.533Z,42.76
2022-11-05T08:42:11.226Z,42.03
2022-11-05T08:47:32.890Z,41.79
2022-11-05T08:52:54.872Z,41.19
2022-11-05T08:58:17.356Z,41.23
2022-11-05T09:03:41.370Z,41.17
2022-11-05T09:09:03.077Z,40.90
2022-11-05T09:14:27.846Z,40.44
2022-11-05T09:19:49.612Z,41.08
2022-11-05T09:25:11.670Z,41.33
2022-11-05T09:30:36.287Z,40.73
2022-11-05T09:35:59.957Z,39.95
2022-11-05T09:41:31.372Z,39.98
2022-11-05T09:46:59.592Z,39.64
2022-11-05T09:52:25.791Z,39.91
2022-11-05T09:57:54.797Z,40.08
2022-11-05T10:03:20.737Z,39.97
2022-11-05T10:08:45.115Z,40.24
2022-11-05T10:14:15.063Z,39.72
2022-11-05T10:20:20.517Z,39.75
2022-11-05T10:25:55.493Z,39.57
2022-11-05T10:31:21.245Z,39.62
2022-11-05T10:36:45.893Z,39.96
2022-11-05T10:42:44.529Z,39.92
2022-11-05T10:48:36.056Z,39.36
2022-11-05T10:54:06.662Z,39.70
2022-11-05T10:59:30.034Z,39.56
2022-11-05T11:04:56.697Z,39.32
2022-11-05T11:10:22.664Z,39.26
2022-11-05T11:15:44.338Z,39.49
2022-11-05T11:21:20.125Z,39.65
2022-11-05T11:26:42.295Z,39.64
2022-11-05T11:32:04.048Z,39.57
2022-11-05T11:37:33.447Z,39.48
2022-11-05T11:42:58.183Z,39.40
2022-11-05T11:48:24.916Z,39.49
2022-11-05T11:53:49.252Z,39.59
2022-11-05T12:00:07.314Z,39.05
2022-11-05T12:05:41.593Z,39.79
2022-11-05T12:11:15.626Z,39.84
2022-11-05T12:16:52.493Z,39.52
2022-11-05T12:22:32.803Z,38.82
2022-11-05T12:28:36.361Z,37.98
2022-11-05T12:34:19.146Z,38.34
2022-11-05T12:39:43.927Z,38.33
2022-11-05T12:45:27.333Z,38.46
2022-11-05T12:51:30.787Z,38.05
2022-11-05T12:56:59.459Z,38.69
2022-11-05T13:02:30.940Z,38.48
2022-11-05T13:08:14.991Z,38.86
2022-11-05T13:13:41.517Z,38.46
2022-11-05T13:19:25.510Z,38.64
2022-11-05T13:24:54.203Z,38.49
2022-11-05T13:30:20.837Z,38.06
2022-11-05T13:35:48.407Z,37.64
2022-11-05T13:41:33.351Z,37.99
2022-11-05T13:47:00.601Z,37.14
2022-11-05T13:52:27.871Z,36.55
2022-11-05T13:57:55.269Z,36.61
2022-11-05T14:03:20.287Z,37.12
2022-11-05T14:08:46.394Z,37.49
2022-11-05T14:14:17.652Z,37.62
2022-11-05T14:20:09.646Z,37.49
2022-11-05T14:25:34.043Z,37.74
2022-11-05T14:30:55.908Z,37.87
2022-11-05T14:36:20.380Z,38.44
2022-11-05T14:42:04.523Z,38.51
2022-11-05T14:47:30.974Z,38.60
2022-11-05T14:52:55.846Z,38.98
2022-11-05T14:58:29.404Z,38.76
2022-11-05T15:04:17.199Z,39.37
2022-11-05T15:09:47.668Z,38.95
2022-11-05T15:15:24.541Z,39.22
2022-11-05T15:20:48.895Z,39.02
2022-11-05T15:26:31.343Z,39.32
2022-11-05T15:31:53.509Z,39.13
2022-11-05T15:37:15.083Z,39.38
2022-11-05T15:42:36.705Z,39.73
2022-11-05T15:47:58.458Z,39.74
2022-11-05T15:54:23.894Z,39.42
2022-11-05T15:59:31.440Z,39.37
2022-11-05T16:04:53.370Z,39.46
2022-11-05T16:10:28.747Z,39.01
2022-11-05T16:15:59.265Z,39.06
2022-11-05T16:21:23.309Z,39.43
2022-11-05T16:32:30.982Z,39.50
2022-11-05T16:37:53.155Z,39.07
2022-11-05T16:43:20.591Z,39.09
2022-11-05T16:48:42.206Z,39.78
2022-11-05T16:54:04.438Z,39.96
2022-11-05T16:59:26.119Z,39.74
2022-11-05T17:04:47.837Z,40.02
2022-11-05T17:10:09.510Z,40.07
2022-11-05T17:15:35.819Z,40.13
2022-11-05T17:20:57.595Z,40.36
2022-11-05T17:26:19.231Z,40.33
2022-11-05T17:31:41.670Z,40.58
2022-11-05T17:37:03.374Z,40.49
2022-11-05T17:42:25.153Z,40.57
2022-11-05T17:47:46.898Z,40.84
2022-11-05T17:53:09.143Z,41.02
2022-11-05T17:58:30.909Z,40.73
2022-11-05T18:03:52.939Z,40.87
2022-11-05T18:09:15.219Z,40.62
2022-11-05T18:14:36.930Z,40.99
2022-11-05T18:19:58.586Z,41.01
2022-11-05T18:25:20.325Z,40.56
2022-11-05T18:30:42.088Z,39.49
2022-11-05T18:36:03.945Z,39.71
2022-11-05T18:41:26.174Z,39.45
2022-11-05T18:47:03.167Z,39.58
2022-11-05T18:52:26.782Z,39.88
2022-11-05T18:57:48.435Z,40.20
2022-11-05T19:03:10.095Z,39.35
2022-11-05T19:08:32.710Z,39.38
2022-11-05T19:13:54.776Z,39.84
2022-11-05T19:19:16.419Z,40.07
2022-11-05T19:24:38.072Z,40.22
2022-11-05T19:29:59.714Z,39.98
2022-11-05T19:35:21.554Z,40.45
2022-11-05T19:40:43.484Z,40.10
2022-11-05T19:46:10.201Z,40.55
2022-11-05T19:51:32.818Z,40.46
2022-11-05T19:56:54.458Z,40.60
2022-11-05T20:02:16.730Z,40.63
2022-11-05T20:07:38.602Z,41.70
2022-11-05T20:13:00.346Z,42.55
2022-11-05T20:18:22.156Z,42.37
2022-11-05T20:23:44.140Z,42.82
2022-11-05T20:29:06.227Z,43.16
2022-11-05T20:34:31.705Z,43.56
2022-11-05T20:39:53.250Z,44.11
2022-11-05T20:45:14.899Z,44.15
2022-11-05T20:50:43.442Z,44.67
2022-11-05T20:56:08.809Z,44.59
2022-11-05T21:01:33.675Z,44.03
2022-11-05T21:06:57.542Z,43.42
2022-11-05T21:12:21.224Z,43.48
2022-11-05T21:17:44.144Z,43.92
2022-11-05T21:23:05.810Z,44.38
2022-11-05T21:28:27.462Z,44.73
2022-11-05T21:33:54.844Z,44.86
2022-11-05T21:39:17.190Z,45.24
2022-11-05T21:44:38.879Z,45.17
2022-11-05T21:50:00.577Z,45.22
2022-11-05T21:55:40.662Z,45.19
2022-11-05T22:01:03.165Z,44.99
2022-11-05T22:06:24.859Z,45.20
2022-11-05T22:11:46.504Z,45.42
2022-11-05T22:17:09.349Z,45.57
2022-11-05T22:22:31.066Z,45.77
2022-11-05T22:27:52.710Z,45.66
2022-11-05T22:33:14.386Z,45.74
2022-11-05T22:38:36.211Z,45.96
2022-11-05T22:43:58.535Z,45.87
2022-11-05T22:49:20.537Z,46.57
2022-11-05T22:54:42.172Z,46.67
2022-11-05T23:00:12.557Z,46.72
2022-11-05T23:05:34.195Z,46.50
2022-11-05T23:11:28.341Z,46.72
2022-11-05T23:17:09.009Z,47.12
2022-11-05T23:22:50.354Z,47.11
2022-11-05T23:28:13.034Z,47.00
2022-11-05T23:33:35.325Z,47.31
2022-11-05T23:38:56.959Z,47.05
2022-11-05T23:44:36.988Z,47.38
2022-11-05T23:49:58.607Z,47.26
2022-11-05T23:55:24.627Z,47.03
